Time;durP1;ratioP1;P1;durP2;ratioP2;P2;SDS_P1;SDS_P2;PMS_P1;PMS_P2;Temp;Humidity;BMP_temperature;BMP_pressure;BME280_temperature;BME280_humidity;BME280_pressure;Samples;Min_cycle;Max_cycle;Signal;HPM_P1;HPM_P2
2021/12/27 00:01:41;;;;;;;1999.90;999.90;;;;;;;-8.46;57.51;100515.41;5023038;27;99501;-73
2021/12/27 00:04:09;;;;;;;1999.90;999.90;;;;;;;-8.43;57.68;100518.25;5024565;27;96792;-73
2021/12/27 00:06:37;;;;;;;1999.90;999.90;;;;;;;-8.40;57.64;100515.94;5027003;27;99014;-74
2021/12/27 00:09:06;;;;;;;1999.90;999.90;;;;;;;-8.35;57.41;100517.28;5029949;27;98295;-74
2021/12/27 00:11:34;;;;;;;1999.90;999.90;;;;;;;-8.31;57.45;100514.19;5030240;27;96916;-74
2021/12/27 00:14:01;;;;;;;1999.90;999.90;;;;;;;-8.29;57.40;100504.91;5027458;27;96842;-73
2021/12/27 00:16:29;;;;;;;1999.90;999.90;;;;;;;-8.28;57.32;100508.41;5027082;27;98186;-73
2021/12/27 00:18:57;;;;;;;1999.90;999.90;;;;;;;-8.27;57.50;100507.63;5027123;27;98179;-74
2021/12/27 00:21:24;;;;;;;1999.90;999.90;;;;;;;-8.24;57.10;100510.50;5027377;27;97440;-74
2021/12/27 00:23:52;;;;;;;1999.90;999.90;;;;;;;-8.26;57.31;100497.47;5029949;27;97180;-75
2021/12/27 00:26:21;;;;;;;1999.90;999.90;;;;;;;-8.24;57.15;100500.19;5029467;27;98075;-73
2021/12/27 00:28:51;;;;;;;1999.90;999.90;;;;;;;-8.26;57.22;100500.06;5010852;28;99844;-73
2021/12/27 00:31:19;;;;;;;1999.90;999.90;;;;;;;-8.26;57.29;100501.72;5010463;28;96844;-73
2021/12/27 00:33:46;;;;;;;1999.90;999.90;;;;;;;-8.23;57.45;100499.41;5024302;27;98183;-72
2021/12/27 00:36:14;;;;;;;1999.90;999.90;;;;;;;-8.20;57.38;100492.84;5028412;27;101106;-74
2021/12/27 00:38:42;;;;;;;1999.90;999.90;;;;;;;-8.20;57.40;100487.69;5027974;27;100154;-73
2021/12/27 00:41:10;;;;;;;1999.90;999.90;;;;;;;-8.17;57.35;100487.97;5028691;27;96774;-77
2021/12/27 00:43:39;;;;;;;1999.90;999.90;;;;;;;-8.15;57.14;100488.09;5025917;27;96858;-74
2021/12/27 00:46:07;;;;;;;1999.90;999.90;;;;;;;-8.16;57.16;100479.44;5024596;27;100546;-73
2021/12/27 00:48:34;;;;;;;1999.90;999.90;;;;;;;-8.13;57.07;100471.97;5027863;27;99089;-73
2021/12/27 00:51:03;;;;;;;1999.90;999.90;;;;;;;-8.12;57.09;100475.47;5028432;27;97200;-73
2021/12/27 00:53:32;;;;;;;1999.90;999.90;;;;;;;-8.13;57.22;100490.03;5023606;27;97116;-73
2021/12/27 00:55:59;;;;;;;1999.90;999.90;;;;;;;-8.12;57.50;100473.81;5027812;27;97521;-74
2021/12/27 00:58:27;;;;;;;1999.90;999.90;;;;;;;-8.08;57.48;100463.00;5027384;27;97924;-74
2021/12/27 01:00:56;;;;;;;1999.90;999.90;;;;;;;-8.05;57.09;100458.09;5033294;27;96797;-74
2021/12/27 01:03:24;;;;;;;1999.90;999.90;;;;;;;-8.05;56.87;100471.00;5012171;27;97092;-74
2021/12/27 01:05:52;;;;;;;1999.90;999.90;;;;;;;-8.07;57.09;100475.09;5030500;27;97758;-73
2021/12/27 01:08:19;;;;;;;1999.90;999.90;;;;;;;-8.06;56.74;100466.63;5029251;27;97607;-73
2021/12/27 01:13:41;;;;;;;1999.90;999.90;;;;;;;-8.04;57.27;100453.84;5026079;27;98994;-74
2021/12/27 01:16:12;;;;;;;1999.90;999.90;;;;;;;-8.02;57.03;100460.94;5027024;27;97550;-74
2021/12/27 01:18:43;;;;;;;1999.90;999.90;;;;;;;-8.00;57.10;100446.47;5029437;27;97746;-74
2021/12/27 01:21:12;;;;;;;1999.90;999.90;;;;;;;-8.01;56.99;100444.69;5029048;27;96894;-73
2021/12/27 01:23:40;;;;;;;1999.90;999.90;;;;;;;-8.03;56.98;100438.47;5030228;27;96690;-73
2021/12/27 01:26:08;;;;;;;1999.90;999.90;;;;;;;-8.06;57.05;100435.63;5021154;27;97569;-74
2021/12/27 01:28:36;;;;;;;1999.90;999.90;;;;;;;-8.04;57.14;100448.69;5026851;27;98977;-74
2021/12/27 01:31:04;;;;;;;1999.90;999.90;;;;;;;-8.03;57.38;100443.63;5021788;27;96845;-73
2021/12/27 01:33:33;;;;;;;1999.90;999.90;;;;;;;-8.02;57.31;100448.03;5023276;27;96827;-73
2021/12/27 01:36:03;;;;;;;1999.90;999.90;;;;;;;-7.98;57.34;100445.72;5025893;27;97667;-74
2021/12/27 01:38:34;;;;;;;1999.90;999.90;;;;;;;-7.93;57.30;100449.63;5027321;27;101699;-74
2021/12/27 01:41:02;;;;;;;1999.90;999.90;;;;;;;-7.89;57.19;100452.59;5028472;27;96757;-74
2021/12/27 01:43:32;;;;;;;1999.90;999.90;;;;;;;-7.88;57.05;100456.06;5028485;27;97311;-74
2021/12/27 01:46:02;;;;;;;1999.90;999.90;;;;;;;-7.85;57.11;100453.78;5026701;27;98822;-75
2021/12/27 01:48:37;;;;;;;1999.90;999.90;;;;;;;-7.82;57.30;100452.38;5027854;27;97962;-74
2021/12/27 01:51:07;;;;;;;1999.90;999.90;;;;;;;-7.81;57.29;100441.25;5028557;27;97190;-74
2021/12/27 01:53:36;;;;;;;1999.90;999.90;;;;;;;-7.79;57.11;100449.13;5024012;27;97322;-74
2021/12/27 01:56:06;;;;;;;1999.90;999.90;;;;;;;-7.79;57.20;100437.16;5027954;27;97637;-73
2021/12/27 01:58:34;;;;;;;1999.90;999.90;;;;;;;-7.75;56.95;100434.06;5028730;27;97910;-74
2021/12/27 02:01:05;;;;;;;1999.90;999.90;;;;;;;-7.73;57.14;100423.88;5028406;27;97663;-73
2021/12/27 02:03:36;;;;;;;1999.90;999.90;;;;;;;-7.70;56.97;100432.78;5021628;27;97973;-74
2021/12/27 02:06:06;;;;;;;1999.90;999.90;;;;;;;-7.70;56.93;100429.28;5026212;27;98807;-75
2021/12/27 02:08:35;;;;;;;1999.90;999.90;;;;;;;-7.71;56.96;100430.97;5027663;27;98026;-74
2021/12/27 02:11:03;;;;;;;1999.90;999.90;;;;;;;-7.68;57.06;100431.25;5024732;27;96956;-75
2021/12/27 02:13:31;;;;;;;1999.90;999.90;;;;;;;-7.66;57.08;100429.69;5024007;27;96930;-73
2021/12/27 02:15:58;;;;;;;1999.90;999.90;;;;;;;-7.63;56.96;100426.44;5029721;27;97971;-74
2021/12/27 02:18:26;;;;;;;1999.90;999.90;;;;;;;-7.61;57.03;100427.50;5026966;27;97946;-74
2021/12/27 02:20:55;;;;;;;1999.90;999.90;;;;;;;-7.59;56.76;100418.19;5026166;27;98149;-74
2021/12/27 02:23:24;;;;;;;1999.90;999.90;;;;;;;-7.57;56.84;100403.75;5027759;27;97814;-73
2021/12/27 02:25:52;;;;;;;1999.90;999.90;;;;;;;-7.59;57.05;100403.63;5025401;27;98785;-76
2021/12/27 02:28:20;;;;;;;1999.90;999.90;;;;;;;-7.59;56.39;100406.19;5026606;27;98684;-75
2021/12/27 02:30:50;;;;;;;1999.90;999.90;;;;;;;-7.58;56.87;100414.88;5026610;27;97963;-74
2021/12/27 02:33:17;;;;;;;1999.90;999.90;;;;;;;-7.57;56.82;100408.91;5019195;27;96869;-74
2021/12/27 02:35:47;;;;;;;1999.90;999.90;;;;;;;-7.57;57.04;100403.75;5020059;27;97825;-73
2021/12/27 02:38:18;;;;;;;1999.90;999.90;;;;;;;-7.55;56.81;100391.88;5028465;27;97582;-74
2021/12/27 02:40:47;;;;;;;1999.90;999.90;;;;;;;-7.55;56.99;100382.44;5026547;27;97049;-74
2021/12/27 02:43:16;;;;;;;1999.90;999.90;;;;;;;-7.53;56.91;100380.00;5026915;27;96757;-74
2021/12/27 02:45:46;;;;;;;1999.90;999.90;;;;;;;-7.52;56.60;100382.69;5025892;27;97923;-74
2021/12/27 02:48:16;;;;;;;1999.90;999.90;;;;;;;-7.49;56.87;100382.06;5027808;27;97614;-73
2021/12/27 02:50:45;;;;;;;1999.90;999.90;;;;;;;-7.49;56.70;100366.56;5024739;27;97200;-74
2021/12/27 02:53:13;;;;;;;1999.90;999.90;;;;;;;-7.49;56.71;100374.31;5023877;27;97788;-75
2021/12/27 02:55:42;;;;;;;1999.90;999.90;;;;;;;-7.51;56.65;100368.13;5019606;27;97600;-74
2021/12/27 02:58:10;;;;;;;1999.90;999.90;;;;;;;-7.50;56.73;100368.25;5028669;27;98786;-74
2021/12/27 03:00:49;;;;;;;1999.90;999.90;;;;;;;-7.47;56.84;100365.03;5025796;27;97551;-75
2021/12/27 03:03:17;;;;;;;1999.90;999.90;;;;;;;-7.44;56.82;100362.69;5024416;27;96627;-74
2021/12/27 03:05:46;;;;;;;1999.90;999.90;;;;;;;-7.43;56.68;100362.81;5025350;27;98154;-75
2021/12/27 03:08:14;;;;;;;1999.90;999.90;;;;;;;-7.42;57.06;100361.16;5027213;27;97553;-75
2021/12/27 03:10:45;;;;;;;1999.90;999.90;;;;;;;-7.41;57.08;100353.50;5025747;27;96576;-75
2021/12/27 03:13:16;;;;;;;1999.90;999.90;;;;;;;-7.37;56.51;100349.50;5024882;27;97469;-75
2021/12/27 03:15:44;;;;;;;1999.90;999.90;;;;;;;-7.39;56.90;100339.06;5023192;27;99157;-75
2021/12/27 03:18:12;;;;;;;1999.90;999.90;;;;;;;-7.38;56.49;100350.31;5022164;27;97624;-74
2021/12/27 03:20:40;;;;;;;1999.90;999.90;;;;;;;-7.37;56.84;100349.50;5031307;27;97266;-76
2021/12/27 03:23:08;;;;;;;1999.90;999.90;;;;;;;-7.36;56.92;100348.75;5024414;27;96962;-74
2021/12/27 03:25:35;;;;;;;1999.90;999.90;;;;;;;-7.33;56.46;100349.00;5023820;27;97946;-75
2021/12/27 03:28:05;;;;;;;1999.90;999.90;;;;;;;-7.32;56.87;100348.22;5028883;27;98662;-76
2021/12/27 03:30:33;;;;;;;1999.90;999.90;;;;;;;-7.32;56.92;100345.63;5025204;27;96726;-74
2021/12/27 03:33:01;;;;;;;1999.90;999.90;;;;;;;-7.30;56.91;100354.41;5025197;27;99779;-74
2021/12/27 03:35:35;;;;;;;1999.90;999.90;;;;;;;-7.29;56.93;100343.31;5025976;27;98124;-73
2021/12/27 03:38:05;;;;;;;1999.90;999.90;;;;;;;-7.31;56.63;100339.69;5025766;27;98848;-74
2021/12/27 03:40:32;;;;;;;1999.90;999.90;;;;;;;-7.32;56.71;100341.38;5028700;27;96648;-74
2021/12/27 03:43:00;;;;;;;1999.90;999.90;;;;;;;-7.34;56.56;100326.50;5024625;27;97185;-75
2021/12/27 03:45:33;;;;;;;1999.90;999.90;;;;;;;-7.33;56.74;100342.16;5026805;27;97791;-73
2021/12/27 03:48:01;;;;;;;1999.90;999.90;;;;;;;-7.29;56.62;100331.28;5028018;27;97607;-74
2021/12/27 03:50:30;;;;;;;1999.90;999.90;;;;;;;-7.26;56.80;100331.56;5027566;27;97191;-73
2021/12/27 03:52:57;;;;;;;1999.90;999.90;;;;;;;-7.25;57.04;100330.75;5025570;27;98640;-75
2021/12/27 03:55:26;;;;;;;1999.90;999.90;;;;;;;-7.24;56.63;100323.94;5021511;27;98444;-74
2021/12/27 03:58:05;;;;;;;1999.90;999.90;;;;;;;-7.22;57.05;100322.38;5027198;27;97977;-74
2021/12/27 04:00:47;;;;;;;1999.90;999.90;;;;;;;-7.23;56.52;100307.63;5020793;27;96778;-74
2021/12/27 04:03:17;;;;;;;1999.90;999.90;;;;;;;-7.23;56.84;100308.53;5021890;27;97073;-74
2021/12/27 04:05:45;;;;;;;1999.90;999.90;;;;;;;-7.21;56.86;100308.66;5024417;27;97572;-74
2021/12/27 04:08:16;;;;;;;1999.90;999.90;;;;;;;-7.20;56.71;100310.50;5025633;27;98820;-74
2021/12/27 04:10:43;;;;;;;1999.90;999.90;;;;;;;-7.18;56.76;100303.78;5016969;27;97028;-74
2021/12/27 04:13:12;;;;;;;1999.90;999.90;;;;;;;-7.17;57.10;100310.72;5020884;27;96922;-74
2021/12/27 04:15:42;;;;;;;1999.90;999.90;;;;;;;-7.16;57.06;100313.44;5023331;27;98360;-73
2021/12/27 04:18:11;;;;;;;1999.90;999.90;;;;;;;-7.15;56.92;100309.19;5025435;27;97969;-74
2021/12/27 04:20:39;;;;;;;1999.90;999.90;;;;;;;-7.16;57.16;100309.97;5029138;27;96833;-74
2021/12/27 04:23:07;;;;;;;1999.90;999.90;;;;;;;-7.15;57.30;100309.19;5028882;27;96863;-73
2021/12/27 04:25:35;;;;;;;1999.90;999.90;;;;;;;-7.13;56.74;100316.31;5022204;27;100849;-73
2021/12/27 04:28:04;;;;;;;1999.90;999.90;;;;;;;-7.09;57.00;100312.28;5011812;27;98660;-73
2021/12/27 04:30:31;;;;;;;1999.90;999.90;;;;;;;-7.10;57.01;100308.78;5026629;27;96905;-75
2021/12/27 04:33:01;;;;;;;1999.90;999.90;;;;;;;-7.08;57.33;100301.16;5009180;28;97074;-73
2021/12/27 04:35:30;;;;;;;1999.90;999.90;;;;;;;-7.09;57.07;100295.06;5029948;27;98089;-73
2021/12/27 04:37:58;;;;;;;1999.90;999.90;;;;;;;-7.06;57.12;100300.50;5025484;27;99041;-74
2021/12/27 04:40:28;;;;;;;1999.90;999.90;;;;;;;-7.02;56.80;100302.56;5028139;27;97137;-74
2021/12/27 04:42:59;;;;;;;1999.90;999.90;;;;;;;-7.01;57.28;100287.94;5026697;27;97124;-74
2021/12/27 04:45:27;;;;;;;1999.90;999.90;;;;;;;-7.00;56.78;100289.78;5029148;27;99828;-75
2021/12/27 04:47:55;;;;;;;1999.90;999.90;;;;;;;-6.99;57.03;100286.38;5025246;27;97892;-74
2021/12/27 04:50:25;;;;;;;1999.90;999.90;;;;;;;-7.00;57.24;100284.59;5029018;27;96712;-73
2021/12/27 04:52:53;;;;;;;1999.90;999.90;;;;;;;-7.03;57.17;100282.66;5026919;27;97537;-73
2021/12/27 04:55:21;;;;;;;1999.90;999.90;;;;;;;-7.03;57.30;100279.16;5026635;27;98732;-75
2021/12/27 04:57:49;;;;;;;1999.90;999.90;;;;;;;-7.03;56.99;100284.31;5023677;27;97634;-74
2021/12/27 05:00:17;;;;;;;1999.90;999.90;;;;;;;-7.02;57.35;100281.91;5025627;27;97032;-74
2021/12/27 05:02:45;;;;;;;1999.90;999.90;;;;;;;-7.00;57.31;100274.25;5016890;27;99045;-73
2021/12/27 05:05:13;;;;;;;1999.90;999.90;;;;;;;-7.01;57.58;100268.19;5024130;27;97660;-73
2021/12/27 05:07:44;;;;;;;1999.90;999.90;;;;;;;-6.99;57.35;100264.03;5026172;27;98700;-74
2021/12/27 05:10:12;;;;;;;1999.90;999.90;;;;;;;-6.95;57.57;100262.59;5028104;27;97216;-74
2021/12/27 05:12:40;;;;;;;1999.90;999.90;;;;;;;-6.92;57.72;100260.25;5009502;27;96823;-75
2021/12/27 05:15:08;;;;;;;1999.90;999.90;;;;;;;-6.93;57.57;100267.88;5025558;27;100836;-75
2021/12/27 05:17:36;;;;;;;1999.90;999.90;;;;;;;-6.97;57.25;100266.75;5026279;27;99107;-75
2021/12/27 05:20:05;;;;;;;1999.90;999.90;;;;;;;-6.94;57.31;100273.84;5027257;27;96820;-75
2021/12/27 05:22:32;;;;;;;1999.90;999.90;;;;;;;-6.94;57.74;100269.56;5011050;27;97306;-74
2021/12/27 05:25:02;;;;;;;1999.90;999.90;;;;;;;-6.94;57.54;100276.44;5027956;27;100128;-74
2021/12/27 05:27:29;;;;;;;1999.90;999.90;;;;;;;-6.92;57.40;100269.72;5026152;27;97491;-75
2021/12/27 05:30:14;;;;;;;1999.90;999.90;;;;;;;-6.89;57.34;100269.97;5027256;27;96783;-75
2021/12/27 05:32:43;;;;;;;1999.90;999.90;;;;;;;-6.87;57.41;100256.38;5022579;27;97042;-75
2021/12/27 05:35:12;;;;;;;1999.90;999.90;;;;;;;-6.86;57.69;100252.09;5011680;28;97712;-75
2021/12/27 05:37:41;;;;;;;1999.90;999.90;;;;;;;-6.85;57.56;100249.63;5028137;27;98026;-74
2021/12/27 05:40:13;;;;;;;1999.90;999.90;;;;;;;-6.85;57.43;100251.34;5028519;27;99042;-74
2021/12/27 05:42:42;;;;;;;1999.90;999.90;;;;;;;-6.85;57.40;100254.78;5027890;27;97127;-74
2021/12/27 05:45:10;;;;;;;1999.90;999.90;;;;;;;-6.87;57.54;100243.44;5028532;27;97902;-74
2021/12/27 05:47:38;;;;;;;1999.90;999.90;;;;;;;-6.87;57.87;100242.53;5027728;27;97635;-74
2021/12/27 05:50:07;;;;;;;1999.90;999.90;;;;;;;-6.90;57.65;100235.44;5026339;27;97175;-75
2021/12/27 05:52:35;;;;;;;1999.90;999.90;;;;;;;-6.91;58.01;100233.63;4999911;27;97755;-75
2021/12/27 05:55:04;;;;;;;1999.90;999.90;;;;;;;-6.88;57.61;100230.38;5027097;27;97598;-74
2021/12/27 05:57:34;;;;;;;1999.90;999.90;;;;;;;-6.84;57.88;100235.94;5027951;27;98071;-75
2021/12/27 06:00:02;;;;;;;1999.90;999.90;;;;;;;-6.81;57.56;100235.28;5029674;27;97095;-74
2021/12/27 06:02:39;;;;;;;1999.90;999.90;;;;;;;-6.79;57.68;100237.19;5026348;27;96950;-75
2021/12/27 06:05:08;;;;;;;1999.90;999.90;;;;;;;-6.78;57.60;100239.03;5027654;27;99344;-74
2021/12/27 06:07:36;;;;;;;1999.90;999.90;;;;;;;-6.77;57.99;100233.06;5025661;27;99194;-74
2021/12/27 06:10:04;;;;;;;1999.90;999.90;;;;;;;-6.76;57.35;100236.56;5027451;28;97427;-74
2021/12/27 06:12:33;;;;;;;1999.90;999.90;;;;;;;-6.75;57.61;100236.66;5026579;27;97453;-74
2021/12/27 06:15:02;;;;;;;1999.90;999.90;;;;;;;-6.73;57.70;100235.13;5028567;27;98786;-74
2021/12/27 06:17:31;;;;;;;1999.90;999.90;;;;;;;-6.69;57.46;100226.81;5025139;27;98730;-75
2021/12/27 06:19:59;;;;;;;1999.90;999.90;;;;;;;-6.70;57.83;100219.81;5028508;27;96770;-75
2021/12/27 06:22:28;;;;;;;1999.90;999.90;;;;;;;-6.68;57.66;100222.53;5025238;27;97126;-75
2021/12/27 06:24:57;;;;;;;1999.90;999.90;;;;;;;-6.66;57.94;100224.47;5026106;27;99386;-75
2021/12/27 06:27:25;;;;;;;1999.90;999.90;;;;;;;-6.65;57.81;100234.03;5023364;27;97592;-75
2021/12/27 06:29:54;;;;;;;1999.90;999.90;;;;;;;-6.63;57.72;100229.88;5028178;27;96763;-75
2021/12/27 06:32:22;;;;;;;1999.90;999.90;;;;;;;-6.60;57.93;100226.63;5025497;27;96619;-75
2021/12/27 06:34:50;;;;;;;1999.90;999.90;;;;;;;-6.57;57.96;100214.84;5024093;27;100644;-75
2021/12/27 06:37:18;;;;;;;1999.90;999.90;;;;;;;-6.56;57.68;100224.41;5006706;27;100289;-77
2021/12/27 06:39:46;;;;;;;1999.90;999.90;;;;;;;-6.54;57.78;100216.78;5019328;27;97697;-74
2021/12/27 06:42:13;;;;;;;1999.90;999.90;;;;;;;-6.54;57.89;100221.97;5024690;27;96812;-75
2021/12/27 06:44:41;;;;;;;1999.90;999.90;;;;;;;-6.56;57.88;100214.06;5022202;27;97606;-75
2021/12/27 06:47:10;;;;;;;1999.90;999.90;;;;;;;-6.56;57.83;100210.59;5026127;28;97548;-75
2021/12/27 06:49:39;;;;;;;1999.90;999.90;;;;;;;-6.56;57.90;100211.47;5023646;28;97820;-75
2021/12/27 06:52:07;;;;;;;1999.90;999.90;;;;;;;-6.56;57.81;100213.16;5028568;27;97830;-73
2021/12/27 06:54:35;;;;;;;1999.90;999.90;;;;;;;-6.57;58.34;100211.34;5023643;27;97661;-74
2021/12/27 06:57:03;;;;;;;1999.90;999.90;;;;;;;-6.57;58.35;100212.25;5020709;27;97633;-74
2021/12/27 06:59:31;;;;;;;1999.90;999.90;;;;;;;-6.55;58.12;100209.78;5026413;27;98732;-74
2021/12/27 07:01:59;;;;;;;1999.90;999.90;;;;;;;-6.53;57.80;100209.13;5027587;27;96945;-74
2021/12/27 07:04:30;;;;;;;1999.90;999.90;;;;;;;-6.51;58.07;100196.31;5025309;27;97605;-72
2021/12/27 07:06:59;;;;;;;1999.90;999.90;;;;;;;-6.50;58.37;100209.38;5025979;27;99720;-72
2021/12/27 07:09:26;;;;;;;1999.90;999.90;;;;;;;-6.48;58.44;100219.84;5025628;27;96759;-73
2021/12/27 07:11:54;;;;;;;1999.90;999.90;;;;;;;-6.46;57.79;100205.34;5009702;28;97154;-73
2021/12/27 07:14:26;;;;;;;1999.90;999.90;;;;;;;-6.43;58.24;100197.84;5022706;27;98381;-73
2021/12/27 07:16:54;;;;;;;1999.90;999.90;;;;;;;-6.39;57.96;100207.63;5026531;27;98115;-73
2021/12/27 07:19:22;;;;;;;1999.90;999.90;;;;;;;-6.38;58.08;100204.25;5025809;27;97798;-74
2021/12/27 07:21:51;;;;;;;1999.90;999.90;;;;;;;-6.36;58.22;100211.34;5026837;27;98170;-73
2021/12/27 07:24:19;;;;;;;1999.90;999.90;;;;;;;-6.36;57.68;100208.75;5023322;27;97550;-75
2021/12/27 07:26:47;;;;;;;1999.90;999.90;;;;;;;-6.33;57.96;100206.44;5023286;27;97487;-73
2021/12/27 07:29:15;;;;;;;1999.90;999.90;;;;;;;-6.31;57.90;100212.63;5008164;27;96760;-73
2021/12/27 07:31:44;;;;;;;1999.90;999.90;;;;;;;-6.30;58.10;100211.84;5016096;27;98056;-73
2021/12/27 07:34:13;;;;;;;1999.90;999.90;;;;;;;-6.30;58.24;100210.91;5011012;27;100674;-73
2021/12/27 07:36:41;;;;;;;1999.90;999.90;;;;;;;-6.28;58.08;100207.69;5001188;28;100087;-74
2021/12/27 07:39:11;;;;;;;1999.90;999.90;;;;;;;-6.26;58.08;100208.72;4994901;27;98107;-74
2021/12/27 07:41:40;;;;;;;1999.90;999.90;;;;;;;-6.24;57.94;100203.63;4994215;28;97156;-73
2021/12/27 07:44:08;;;;;;;1999.90;999.90;;;;;;;-6.24;58.30;100209.72;5013440;27;97735;-74
2021/12/27 07:46:40;;;;;;;1999.90;999.90;;;;;;;-6.24;58.30;100208.81;5011560;27;99477;-72
2021/12/27 07:49:09;;;;;;;1999.90;999.90;;;;;;;-6.23;58.25;100208.94;5012070;27;98303;-74
2021/12/27 07:51:37;;;;;;;1999.90;999.90;;;;;;;-6.21;58.45;100203.88;4995328;28;98039;-72
2021/12/27 07:54:06;;;;;;;1999.90;999.90;;;;;;;-6.20;58.41;100201.44;5012060;27;97975;-74
2021/12/27 07:56:37;;;;;;;1999.90;999.90;;;;;;;-6.20;58.33;100196.25;5016466;27;99036;-74
2021/12/27 07:59:05;;;;;;;1999.90;999.90;;;;;;;-6.16;58.50;100203.44;5016694;27;100588;-74
2021/12/27 08:01:35;;;;;;;1999.90;999.90;;;;;;;-6.12;58.11;100200.31;4999595;28;97567;-74
2021/12/27 08:04:03;;;;;;;1999.90;999.90;;;;;;;-6.10;57.89;100198.75;4999246;27;100269;-72
2021/12/27 08:06:32;;;;;;;1999.90;999.90;;;;;;;-6.06;58.48;100195.63;4998881;28;99232;-71
2021/12/27 08:09:00;;;;;;;1999.90;999.90;;;;;;;-6.06;57.95;100194.69;4999015;27;97904;-72
2021/12/27 08:11:28;;;;;;;1999.90;999.90;;;;;;;-6.06;58.19;100198.22;5015920;27;97892;-72
2021/12/27 08:13:57;;;;;;;1999.90;999.90;;;;;;;-6.03;57.93;100180.31;5016454;27;101016;-73
2021/12/27 08:16:25;;;;;;;1999.90;999.90;;;;;;;-6.01;58.25;100188.19;5019388;27;97553;-73
2021/12/27 08:18:53;;;;;;;1999.90;999.90;;;;;;;-6.00;58.17;100184.81;5000263;28;96888;-72
2021/12/27 08:21:22;;;;;;;1999.90;999.90;;;;;;;-6.01;58.29;100186.50;5001033;28;98040;-75
2021/12/27 08:23:50;;;;;;;1999.90;999.90;;;;;;;-5.99;58.15;100186.63;5000785;28;98740;-74
2021/12/27 08:26:18;;;;;;;1999.90;999.90;;;;;;;-5.96;58.26;100168.75;5017439;27;99206;-75
2021/12/27 08:28:50;;;;;;;1999.90;999.90;;;;;;;-5.93;58.12;100176.75;5015351;27;97591;-75
2021/12/27 08:31:19;;;;;;;1999.90;999.90;;;;;;;-5.90;58.11;100182.13;5017251;27;96848;-75
2021/12/27 08:33:47;;;;;;;1999.90;999.90;;;;;;;-5.87;57.89;100191.84;5013342;27;99461;-74
2021/12/27 08:36:15;;;;;;;1999.90;999.90;;;;;;;-5.85;58.22;100192.88;5021463;27;99123;-75
2021/12/27 08:38:44;;;;;;;1999.90;999.90;;;;;;;-5.83;57.93;100186.13;5017553;27;97863;-76
2021/12/27 08:41:12;;;;;;;1999.90;999.90;;;;;;;-5.81;58.12;100192.31;5015501;27;97269;-76
2021/12/27 08:43:40;;;;;;;1999.90;999.90;;;;;;;-5.81;58.33;100181.97;5005017;28;99701;-75
2021/12/27 08:46:08;;;;;;;1999.90;999.90;;;;;;;-5.80;58.16;100183.75;5034086;27;98864;-75
2021/12/27 08:48:38;;;;;;;1999.90;999.90;;;;;;;-5.79;58.20;100188.16;5019239;27;98983;-74
2021/12/27 08:51:06;;;;;;;1999.90;999.90;;;;;;;-5.78;58.34;100193.44;5021811;27;97054;-76
2021/12/27 08:53:34;;;;;;;1999.90;999.90;;;;;;;-5.74;58.12;100186.81;5020433;27;97670;-75
2021/12/27 08:56:02;;;;;;;1999.90;999.90;;;;;;;-5.72;58.26;100195.59;5027286;27;97781;-75
2021/12/27 08:58:30;;;;;;;1999.90;999.90;;;;;;;-5.72;58.41;100187.84;5025122;27;96846;-75
2021/12/27 09:00:57;;;;;;;1999.90;999.90;;;;;;;-5.67;58.21;100191.66;5026920;27;97291;-75
2021/12/27 09:03:25;;;;;;;1999.90;999.90;;;;;;;-5.65;58.41;100190.09;5028624;28;97625;-75
2021/12/27 09:05:54;;;;;;;1999.90;999.90;;;;;;;-5.65;58.26;100184.91;5022118;27;97826;-75
2021/12/27 09:08:22;;;;;;;1999.90;999.90;;;;;;;-5.64;58.41;100181.50;5022458;27;97345;-75
2021/12/27 09:10:50;;;;;;;1999.90;999.90;;;;;;;-5.55;58.13;100182.19;5025925;27;99139;-77
2021/12/27 09:13:18;;;;;;;1999.90;999.90;;;;;;;-5.52;57.93;100185.03;5041175;27;100121;-75
2021/12/27 09:15:46;;;;;;;1999.90;999.90;;;;;;;-5.53;58.41;100185.81;5021678;27;99620;-74
2021/12/27 09:18:13;;;;;;;1999.90;999.90;;;;;;;-5.50;58.43;100192.13;5027510;27;97052;-73
2021/12/27 09:20:41;;;;;;;1999.90;999.90;;;;;;;-5.44;58.07;100181.31;5026790;27;97465;-73
2021/12/27 09:23:11;;;;;;;1999.90;999.90;;;;;;;-5.42;57.74;100179.75;5023713;27;97639;-73
2021/12/27 09:25:38;;;;;;;1999.90;999.90;;;;;;;-5.38;58.17;100179.19;5023080;27;98567;-73
2021/12/27 09:28:06;;;;;;;1999.90;999.90;;;;;;;-5.36;58.18;100178.53;5021289;27;97686;-73
2021/12/27 09:30:34;;;;;;;1999.90;999.90;;;;;;;-5.29;57.97;100175.59;5019416;27;96888;-72
2021/12/27 09:33:02;;;;;;;1999.90;999.90;;;;;;;-5.27;57.85;100168.81;5015590;27;99864;-74
2021/12/27 09:35:30;;;;;;;1999.90;999.90;;;;;;;-5.23;57.90;100170.84;5018880;27;98762;-76
2021/12/27 09:37:58;;;;;;;1999.90;999.90;;;;;;;-5.22;58.01;100163.97;5022954;27;98798;-75
2021/12/27 09:40:27;;;;;;;1999.90;999.90;;;;;;;-5.20;57.96;100171.06;5022594;27;98558;-75
2021/12/27 09:42:55;;;;;;;1999.90;999.90;;;;;;;-5.17;58.25;100162.59;5008496;27;99094;-73
2021/12/27 09:45:23;;;;;;;1999.90;999.90;;;;;;;-5.14;58.04;100160.25;5023075;27;97724;-73
2021/12/27 09:47:51;;;;;;;1999.90;999.90;;;;;;;-5.09;58.11;100166.66;5026320;27;97710;-74
2021/12/27 09:50:24;;;;;;;1999.90;999.90;;;;;;;-5.07;58.19;100162.50;5023466;27;98234;-73
2021/12/27 09:52:53;;;;;;;1999.90;999.90;;;;;;;-5.01;58.08;100155.16;5017244;27;99631;-75
2021/12/27 09:55:22;;;;;;;1999.90;999.90;;;;;;;-5.00;58.08;100147.50;5004951;27;97836;-75
2021/12/27 09:57:51;;;;;;;1999.90;999.90;;;;;;;-4.98;57.94;100150.19;5024513;27;96814;-74
2021/12/27 10:00:20;;;;;;;1999.90;999.90;;;;;;;-4.95;58.05;100147.81;5020400;27;98100;-77
2021/12/27 10:02:51;;;;;;;1999.90;999.90;;;;;;;-4.93;58.03;100139.34;5004337;27;98918;-75
2021/12/27 10:05:20;;;;;;;1999.90;999.90;;;;;;;-4.90;58.03;100129.19;4998412;28;99313;-74
2021/12/27 10:07:51;;;;;;;1999.90;999.90;;;;;;;-4.91;58.21;100117.03;5018906;27;98642;-75
2021/12/27 10:10:31;;;;;;;1999.90;999.90;;;;;;;-4.89;58.24;100106.75;5038525;27;99874;-77
2021/12/27 10:13:01;;;;;;;1999.90;999.90;;;;;;;-4.85;58.22;100106.19;5019091;27;101165;-71
2021/12/27 10:15:34;;;;;;;1999.90;999.90;;;;;;;-4.81;58.03;100116.00;5016866;27;98997;-73
2021/12/27 10:18:08;;;;;;;1999.90;999.90;;;;;;;-4.75;58.40;100124.19;5015538;27;97678;-75
2021/12/27 10:20:36;;;;;;;1999.90;999.90;;;;;;;-4.71;58.54;100115.81;5000308;28;98921;-71
2021/12/27 10:23:04;;;;;;;1999.90;999.90;;;;;;;-4.63;58.37;100104.31;5015959;27;97739;-70
2021/12/27 10:25:32;;;;;;;1999.90;999.90;;;;;;;-4.58;58.26;100105.50;5019305;27;99187;-71
2021/12/27 10:28:03;;;;;;;1999.90;999.90;;;;;;;-4.54;58.12;100106.63;5017136;27;97758;-71
2021/12/27 10:30:32;;;;;;;1999.90;999.90;;;;;;;-4.49;58.06;100105.25;5018762;27;96862;-70
2021/12/27 10:33:07;;;;;;;1999.90;999.90;;;;;;;-4.46;58.28;100108.94;5013707;27;98007;-71
2021/12/27 10:35:37;;;;;;;1999.90;999.90;;;;;;;-4.41;57.86;100105.00;5014624;27;98304;-71
2021/12/27 10:38:16;;;;;;;1999.90;999.90;;;;;;;-4.37;57.92;100100.91;5014690;27;97759;-71
2021/12/27 10:40:52;;;;;;;1999.90;999.90;;;;;;;-4.34;58.22;100102.03;5011970;27;98411;-71
2021/12/27 10:43:38;;;;;;;1999.90;999.90;;;;;;;-4.35;58.22;100095.00;5017687;27;98895;-71
2021/12/27 10:46:08;;;;;;;1999.90;999.90;;;;;;;-4.33;58.25;100088.22;5015626;27;97960;-71
2021/12/27 10:48:36;;;;;;;1999.90;999.90;;;;;;;-4.29;57.79;100089.34;5018449;27;98778;-73
2021/12/27 10:51:04;;;;;;;1999.90;999.90;;;;;;;-4.29;58.14;100079.88;5017755;27;96986;-70
2021/12/27 10:53:43;;;;;;;1999.90;999.90;;;;;;;-4.27;58.41;100083.47;5018801;27;98822;-70
2021/12/27 10:56:11;;;;;;;1999.90;999.90;;;;;;;-4.23;58.45;100075.09;5019666;27;99582;-69
2021/12/27 10:58:47;;;;;;;1999.90;999.90;;;;;;;-4.23;58.30;100079.38;5000517;27;97197;-72